Flight Track Log - Related Links

Times and Time Zones

All times are in EDT time to prevent confusion due to time zone crossing. See the N83413 flight status page for this flight to view local times or setup timezone preferences in your user account.

Time Position Orientation Groundspeed Altitude Reporting Facility
EDT Latitude Longitude Course Direction KTS MPH feet Rate Location/Type
Thu 08:48:00 PM 33.6251 -85.6407 82° East  Level FlightAware Approximate
Thu 08:49:00 PM 33.6328 -85.5719 82° East  Level FlightAware Approximate
Thu 08:49:10 PM 33.5967 -86.0264 79° East 164 189 2,300  Level Atlanta Center
Thu 08:50:00 PM 33.6439 -85.5037 79° East  Level FlightAware Approximate
Thu 08:50:10 PM 33.6036 -85.9742 81° East 150 173 4,500  Level Atlanta Center
Thu 08:50:37 PM 33.6103 -85.9494 72° East 156 180 4,800 345 Climbing Atlanta Center
Thu 08:51:37 PM 33.6156 -85.8897 84° East 180 207 5,000 1,000 Climbing Atlanta Center
Thu 08:52:37 PM 33.6269 -85.8275 78° East 190 219 6,800 1,900 Climbing Atlanta Center
Thu 08:53:37 PM 33.6361 -85.7703 79° East 177 204 8,800 1,800 Climbing Atlanta Center
Thu 08:54:37 PM 33.6453 -85.7106 80° East 178 205 10,400 1,800 Climbing Atlanta Center
Thu 08:55:37 PM 33.6544 -85.6486 80° East 178 205 12,400 1,950 Climbing Atlanta Center
Thu 08:56:37 PM 33.6614 -85.5911 82° East 178 205 14,300 1,300 Climbing Atlanta Center
Thu 08:57:37 PM 33.6706 -85.5239 81° East 190 219 15,000 350 Climbing Atlanta Center
Thu 08:58:37 PM 33.6797 -85.4467 82° East 222 255 15,000  Level Atlanta Center
Thu 08:59:37 PM 33.6911 -85.3619 81° East 232 267 15,000  Level Atlanta Center
Thu 09:00:37 PM 33.7044 -85.2847 78° East 238 274 15,000  Level Atlanta Center
Thu 09:01:37 PM 33.7114 -85.2075 84° East 238 274 15,000  Level Atlanta Center
Thu 09:02:37 PM 33.7206 -85.1278 82° East 238 274 15,000  Level Atlanta Center
Thu 09:03:37 PM 33.7339 -85.0506 78° East 238 274 15,000  Level Atlanta Center
Thu 09:04:37 PM 33.7428 -84.9731 82° East 238 274 15,000  Level Atlanta Center
Thu 09:05:37 PM 33.7536 -84.8933 81° East 238 274 15,000  Level Atlanta Center
Thu 09:06:37 PM 33.7647 -84.8133 80° East 238 274 15,000  Level Atlanta Center
Thu 09:07:37 PM 33.7736 -84.7361 82° East 238 274 15,000  Level Atlanta Center
Thu 09:08:37 PM 33.7864 -84.6561 79° East 238 274 15,000  Level Atlanta Center
Thu 09:09:37 PM 33.7953 -84.5761 82° East 238 274 15,000  Level Atlanta Center
Thu 09:10:37 PM 33.7997 -84.4989 86° East 238 274 15,000  Level Atlanta Center
Thu 09:11:37 PM 33.8019 -84.4164 88° East 238 274 15,000  Level Atlanta Center
Thu 09:12:37 PM 33.8044 -84.3364 88° East 232 267 15,000  Level Atlanta Center
Thu 09:13:37 PM 33.8003 -84.2564 94° East 232 267 15,000  Level Atlanta Center
Thu 09:14:37 PM 33.8006 -84.1764 90° East 238 274 15,000  Level Atlanta Center
Thu 09:15:37 PM 33.8006 -84.1039 90° East 238 274 15,000  Level Atlanta Center
Thu 09:16:37 PM 33.8006 -84.0264 90° East 232 267 15,000 -500 Level Atlanta Center
Thu 09:17:37 PM 33.8067 -83.9514 84° East 227 261 14,000 -1,250 Descending Atlanta Center
Thu 09:18:37 PM 33.8297 -83.8711 71° East 238 274 12,500 -1,500 Descending Atlanta Center
Thu 09:19:37 PM 33.8586 -83.7986 64° Northeast 243 280 11,000 -1,550 Descending Atlanta Center
Thu 09:20:37 PM 33.8900 -83.7411 57° Northeast 224 258 9,400 -1,550 Descending Atlanta Center
Thu 09:21:37 PM 33.9483 -83.7408 360° North 184 212 7,900 -1,500 Descending Atlanta Center
Thu 09:22:37 PM 34.0025 -83.7231 15° North 192 221 6,400 -1,500 Descending Atlanta Center
Thu 09:23:37 PM 34.0233 -83.6653 66° East 167 192 4,900 -1,200 Descending Atlanta Center
Thu 09:24:37 PM 33.9961 -83.6406 143° Southeast 112 129 4,000 -400 Descending Atlanta Center
Thu 09:25:37 PM 33.9522 -83.6456 185° South 132 152 4,100  Climbing Atlanta Center
Thu 09:26:37 PM 33.9439 -83.6056 104° East 109 125 4,000 -650 Descending Atlanta Center
Thu 09:27:37 PM 33.9394 -83.5606 97° East 122 140 2,800 -600 Descending Atlanta Center
Thu 09:29:17 PM 33.9500 -83.4833 81° East 135 155 2,400 -150 Descending Atlanta TRACON
Thu 09:30:17 PM 33.9500 -83.4333 90° East 118 136 2,400 -300 Level Atlanta TRACON
Thu 09:31:17 PM 33.9500 -83.4000 90° East 119 137 1,800 -600 Descending Atlanta TRACON

Login

Don't have an account? Register now (free) for customized features, flight alerts, and more!